Time;durP1;ratioP1;P1;durP2;ratioP2;P2;SDS_P1;SDS_P2;PMS_P1;PMS_P2;Temp;Humidity;BMP_temperature;BMP_pressure;BME280_temperature;BME280_humidity;BME280_pressure;Samples;Min_cycle;Max_cycle;Signal;HPM_P1;HPM_P2
2023/03/30 00:01:10;;;;;;;28.65;14.68;;;;;;;8.39;95.79;98653.53;5079666;28;20477;-40
2023/03/30 00:03:37;;;;;;;28.75;14.32;;;;;;;8.34;95.83;98663.25;5068540;28;20043;-42
2023/03/30 00:06:05;;;;;;;28.92;14.52;;;;;;;8.29;96.08;98669.50;5085520;28;20043;-39
2023/03/30 00:08:32;;;;;;;33.65;15.90;;;;;;;8.29;95.73;98665.16;5084667;28;20047;-40
2023/03/30 00:11:04;;;;;;;28.75;14.68;;;;;;;8.27;95.56;98655.78;5083793;28;20040;-40
2023/03/30 00:13:32;;;;;;;29.60;14.75;;;;;;;8.26;95.74;98654.94;5084154;28;20047;-39
2023/03/30 00:15:58;;;;;;;31.13;14.90;;;;;;;8.29;95.63;98657.38;5079865;28;20057;-39
2023/03/30 00:18:25;;;;;;;30.10;15.43;;;;;;;8.26;95.69;98654.94;5079632;28;20466;-40
2023/03/30 00:20:51;;;;;;;30.80;15.40;;;;;;;8.25;95.87;98644.63;5087527;28;20099;-39
2023/03/30 00:23:21;;;;;;;27.77;15.02;;;;;;;8.32;95.52;98644.34;5077174;28;20040;-39
2023/03/30 00:25:47;;;;;;;30.98;16.65;;;;;;;8.34;95.79;98641.69;5086888;28;20458;-39
2023/03/30 00:28:13;;;;;;;27.70;15.77;;;;;;;8.28;95.88;98628.97;5081510;28;20181;-40
2023/03/30 00:30:40;;;;;;;29.17;15.07;;;;;;;8.42;95.29;98642.22;5079318;28;20128;-39
2023/03/30 00:33:06;;;;;;;31.20;17.08;;;;;;;8.39;95.03;98650.94;5083104;28;20032;-39
2023/03/30 00:35:32;;;;;;;31.27;15.10;;;;;;;8.27;95.14;98620.34;5065462;28;20043;-45
2023/03/30 00:38:00;;;;;;;33.35;15.32;;;;;;;8.53;95.23;98646.94;5079764;28;20136;-39
2023/03/30 00:40:27;;;;;;;31.95;15.38;;;;;;;8.57;95.04;98651.09;5084685;28;20248;-39
2023/03/30 00:43:04;;;;;;;29.92;15.35;;;;;;;8.51;94.66;98657.38;5063243;28;20048;-40
2023/03/30 00:45:31;;;;;;;31.50;16.13;;;;;;;8.43;94.53;98655.09;5061342;28;20048;-39
2023/03/30 00:48:26;;;;;;;31.40;15.40;;;;;;;8.43;94.78;98652.50;5067764;28;20127;-39
2023/03/30 00:51:08;;;;;;;30.90;16.40;;;;;;;8.46;94.18;98649.78;5078992;28;20075;-38
2023/03/30 00:53:40;;;;;;;29.95;14.90;;;;;;;8.31;94.11;98634.06;5076936;28;20981;-39
2023/03/30 00:56:08;;;;;;;30.73;14.68;;;;;;;8.40;94.20;98652.63;5052014;28;20048;-39
2023/03/30 00:58:35;;;;;;;33.47;15.60;;;;;;;8.29;94.61;98641.84;5067969;28;20048;-38
2023/03/30 01:01:04;;;;;;;31.90;16.42;;;;;;;8.38;94.43;98659.63;5068618;28;20124;-39
2023/03/30 01:03:33;;;;;;;34.50;15.23;;;;;;;8.39;94.69;98655.28;5058863;28;20474;-40
2023/03/30 01:06:00;;;;;;;;;;;;;;;8.39;94.95;98657.88;5082308;28;20461;-40
2023/03/30 01:08:34;;;;;;;25.83;12.30;;;;;;;8.24;94.62;98655.88;5062203;28;20588;-38
2023/03/30 01:11:00;;;;;;;22.50;11.55;;;;;;;8.13;95.62;98671.00;5082844;28;20547;-39
2023/03/30 01:13:33;;;;;;;21.65;10.95;;;;;;;7.95;96.57;98672.63;5075027;28;20614;-38
2023/03/30 01:16:25;;;;;;;25.27;12.18;;;;;;;7.82;98.60;98655.88;5069098;28;20044;-39
2023/03/30 01:19:00;;;;;;;13.93;7.55;;;;;;;7.72;98.37;98660.56;5082537;28;20086;-39
2023/03/30 01:21:44;;;;;;;12.25;6.93;;;;;;;7.66;98.45;98665.97;5086713;28;20105;-39
2023/03/30 01:24:52;;;;;;;11.30;6.47;;;;;;;7.54;98.74;98659.53;5047360;28;20082;-39
2023/03/30 01:27:48;;;;;;;13.93;7.45;;;;;;;7.45;98.85;98662.47;5049133;28;20551;-39
2023/03/30 01:30:21;;;;;;;12.18;7.25;;;;;;;7.37;99.45;98672.28;5085452;28;20040;-39
2023/03/30 01:33:13;;;;;;;12.88;6.78;;;;;;;7.41;99.86;98673.84;5076042;28;20135;-38
2023/03/30 01:35:51;;;;;;;15.68;6.47;;;;;;;7.49;100.00;98683.88;5029821;28;20042;-39
2023/03/30 01:38:32;;;;;;;12.85;7.47;;;;;;;7.39;99.82;98680.81;5081489;28;20116;-39
2023/03/30 01:41:15;;;;;;;13.93;8.27;;;;;;;7.42;100.00;98685.03;5084707;28;20036;-39
2023/03/30 01:43:58;;;;;;;16.60;7.93;;;;;;;7.34;100.00;98684.47;5077872;28;20054;-39
2023/03/30 01:46:32;;;;;;;16.58;7.88;;;;;;;7.37;100.00;98687.81;5048744;28;20051;-40
2023/03/30 01:49:21;;;;;;;16.02;8.18;;;;;;;7.41;100.00;98691.09;5067897;28;20040;-39
2023/03/30 01:52:05;;;;;;;15.57;8.18;;;;;;;7.48;100.00;98693.41;5061035;28;20039;-40
2023/03/30 01:54:35;;;;;;;16.60;8.38;;;;;;;7.44;100.00;98672.88;5070692;28;20178;-38
2023/03/30 01:57:16;;;;;;;16.70;8.57;;;;;;;7.55;100.00;98702.59;5067321;28;20496;-40
2023/03/30 01:59:48;;;;;;;16.55;9.02;;;;;;;7.47;100.00;98704.66;5051680;28;20036;-39
2023/03/30 02:02:16;;;;;;;14.82;8.00;;;;;;;7.33;100.00;98683.63;5079935;28;20170;-39
2023/03/30 02:04:44;;;;;;;15.43;8.23;;;;;;;7.47;100.00;98709.81;5057966;28;20508;-40
2023/03/30 02:07:14;;;;;;;13.38;7.95;;;;;;;7.27;100.00;98677.84;5087307;28;20051;-39
2023/03/30 02:09:41;;;;;;;14.57;8.02;;;;;;;7.48;100.00;98706.34;5082922;28;20040;-39
2023/03/30 02:12:09;;;;;;;13.38;7.15;;;;;;;7.28;99.58;98692.44;5080061;28;20110;-40
2023/03/30 02:14:36;;;;;;;15.27;7.95;;;;;;;7.37;98.52;98721.41;5084293;28;20050;-39
2023/03/30 02:17:23;;;;;;;11.23;6.22;;;;;;;7.29;97.36;98715.66;5060393;28;20634;-38
2023/03/30 02:19:50;;;;;;;10.15;5.90;;;;;;;7.29;96.20;98720.84;5083301;28;20049;-39
2023/03/30 02:22:17;;;;;;;7.15;3.83;;;;;;;7.22;95.01;98727.16;5053448;28;20085;-39
2023/03/30 02:24:45;;;;;;;9.48;5.65;;;;;;;7.15;94.21;98725.66;5082443;28;20054;-39
2023/03/30 02:27:12;;;;;;;12.88;6.57;;;;;;;7.12;93.46;98718.00;5073012;28;20538;-39
2023/03/30 02:29:41;;;;;;;9.98;6.05;;;;;;;7.13;92.99;98717.13;5083112;28;20089;-40
2023/03/30 02:32:20;;;;;;;12.10;6.70;;;;;;;7.13;92.16;98717.13;5071899;28;20047;-40
2023/03/30 02:35:14;;;;;;;10.23;5.60;;;;;;;7.08;91.95;98713.84;5083449;28;20301;-39
2023/03/30 02:37:43;;;;;;;11.73;5.93;;;;;;;7.02;91.81;98712.31;5100188;28;20044;-40
2023/03/30 02:40:34;;;;;;;12.27;6.68;;;;;;;7.09;91.91;98718.97;5081034;28;20036;-39
2023/03/30 02:43:22;;;;;;;10.00;5.60;;;;;;;7.11;91.73;98722.34;5087735;28;20052;-39
2023/03/30 02:46:03;;;;;;;10.38;5.32;;;;;;;7.05;92.08;98732.06;5084264;28;20032;-39
2023/03/30 02:48:58;;;;;;;10.82;6.20;;;;;;;6.86;91.85;98705.16;5071649;28;20064;-39
2023/03/30 02:51:50;;;;;;;10.27;6.05;;;;;;;7.03;91.93;98737.28;5101649;28;20044;-39
2023/03/30 02:54:25;;;;;;;9.85;5.20;;;;;;;6.95;92.09;98741.03;5080747;28;20056;-39
2023/03/30 02:57:32;;;;;;;8.02;4.95;;;;;;;6.83;92.74;98744.88;5068464;28;20047;-40
2023/03/30 03:00:33;;;;;;;9.35;5.05;;;;;;;6.67;93.29;98739.38;5030974;28;20041;-38
2023/03/30 03:03:10;;;;;;;9.30;5.00;;;;;;;6.27;94.19;98692.56;5078357;28;20072;-39
2023/03/30 03:05:36;;;;;;;6.95;3.72;;;;;;;6.54;95.20;98752.78;5077449;28;20043;-39
2023/03/30 03:08:08;;;;;;;8.70;4.68;;;;;;;6.43;95.44;98758.28;5072450;28;20040;-40
2023/03/30 03:10:35;;;;;;;8.52;4.82;;;;;;;6.25;96.48;98725.31;5070911;28;20039;-39
2023/03/30 03:13:02;;;;;;;11.77;5.57;;;;;;;6.41;96.45;98757.47;5053452;28;20043;-39
2023/03/30 03:15:29;;;;;;;9.10;5.05;;;;;;;6.42;97.38;98751.44;5084199;28;20079;-39
2023/03/30 03:18:06;;;;;;;7.25;4.07;;;;;;;6.23;97.03;98722.78;5071267;28;20044;-40
2023/03/30 03:20:32;;;;;;;8.60;4.78;;;;;;;6.39;97.35;98756.69;5093768;27;20036;-39
2023/03/30 03:23:00;;;;;;;6.85;4.45;;;;;;;6.48;97.63;98755.56;5088039;28;20456;-38
2023/03/30 03:25:27;;;;;;;8.00;4.30;;;;;;;6.53;96.72;98753.66;5065800;28;20519;-39
2023/03/30 03:28:03;;;;;;;9.98;4.85;;;;;;;6.56;96.82;98753.53;5038587;28;20056;-39
2023/03/30 03:30:35;;;;;;;6.43;4.63;;;;;;;6.56;96.61;98754.41;5073084;28;20040;-38
2023/03/30 03:33:09;;;;;;;8.27;4.65;;;;;;;6.47;96.14;98753.84;5073341;28;20431;-39
2023/03/30 03:35:38;;;;;;;8.38;4.80;;;;;;;6.46;96.55;98747.84;5053368;28;20039;-40
2023/03/30 03:38:06;;;;;;;8.07;4.45;;;;;;;6.60;96.35;98744.78;5085981;28;20105;-38
2023/03/30 03:40:33;;;;;;;7.55;4.28;;;;;;;6.75;95.77;98745.13;5068309;28;20044;-39
2023/03/30 03:43:00;;;;;;;7.20;4.70;;;;;;;6.78;95.55;98747.63;5035974;28;20052;-40
2023/03/30 03:45:26;;;;;;;10.32;5.18;;;;;;;6.61;94.78;98720.66;5099019;27;20054;-39
2023/03/30 03:47:55;;;;;;;9.65;5.57;;;;;;;6.64;94.59;98756.72;5053071;28;20048;-39
2023/03/30 03:50:49;;;;;;;9.35;5.20;;;;;;;6.46;94.74;98734.09;5083979;28;20528;-39
2023/03/30 03:53:16;;;;;;;11.25;6.10;;;;;;;6.65;94.78;98760.97;5053658;28;20135;-39
2023/03/30 03:55:43;;;;;;;8.80;4.70;;;;;;;6.64;94.50;98762.75;5083553;28;20071;-39
2023/03/30 03:58:09;;;;;;;10.10;5.30;;;;;;;6.56;94.17;98762.13;5081664;28;20040;-39
2023/03/30 04:00:35;;;;;;;9.48;5.60;;;;;;;6.65;94.02;98754.06;5051561;28;20044;-40
2023/03/30 04:03:03;;;;;;;9.32;5.15;;;;;;;6.67;93.70;98764.38;5092012;28;20520;-39
2023/03/30 04:05:29;;;;;;;9.00;5.60;;;;;;;6.75;93.33;98770.94;5074593;28;20857;-39
2023/03/30 04:07:55;;;;;;;9.55;5.45;;;;;;;6.67;92.79;98777.28;5073983;28;20223;-40
2023/03/30 04:10:23;;;;;;;11.55;5.95;;;;;;;6.59;93.03;98780.13;5081706;28;20068;-40
2023/03/30 04:12:57;;;;;;;12.40;6.03;;;;;;;6.41;93.06;98761.78;5047907;28;20457;-40
2023/03/30 04:15:42;;;;;;;11.38;5.40;;;;;;;6.44;93.47;98761.72;5077978;28;20032;-40
2023/03/30 04:18:34;;;;;;;11.20;5.70;;;;;;;6.56;93.67;98780.22;5057061;28;20059;-39
2023/03/30 04:21:21;;;;;;;11.13;5.45;;;;;;;6.53;93.35;98789.81;5070679;28;20073;-38
2023/03/30 04:24:10;;;;;;;12.52;5.95;;;;;;;6.39;93.76;98764.41;5081171;28;20630;-40
2023/03/30 04:26:56;;;;;;;12.30;6.28;;;;;;;6.56;93.03;98798.28;5080856;28;20043;-40
2023/03/30 04:29:45;;;;;;;11.00;5.50;;;;;;;6.71;92.88;98787.47;5078116;28;20093;-39
2023/03/30 04:32:40;;;;;;;10.27;4.78;;;;;;;6.57;91.99;98775.91;5080789;28;20430;-42
2023/03/30 04:35:27;;;;;;;10.05;5.50;;;;;;;6.67;91.74;98796.22;5080232;28;20492;-40
2023/03/30 04:37:56;;;;;;;8.88;5.20;;;;;;;6.61;91.09;98788.66;5062500;28;20044;-40
2023/03/30 04:40:32;;;;;;;11.23;4.85;;;;;;;6.58;90.65;98793.94;5081400;28;20566;-40
2023/03/30 04:43:20;;;;;;;14.88;4.93;;;;;;;6.55;90.28;98796.59;5071325;28;20478;-40
2023/03/30 04:46:06;;;;;;;10.02;4.95;;;;;;;6.57;89.60;98804.31;5067068;28;20048;-40
2023/03/30 04:48:51;;;;;;;9.13;4.60;;;;;;;6.56;89.01;98798.28;5083380;28;20499;-40
2023/03/30 04:51:49;;;;;;;7.00;3.20;;;;;;;6.57;88.48;98799.97;5068881;28;20092;-40
2023/03/30 04:54:50;;;;;;;7.82;3.25;;;;;;;6.15;86.65;98750.56;5082626;28;20048;-40
2023/03/30 04:57:48;;;;;;;7.75;3.00;;;;;;;6.49;86.11;98799.38;5068155;28;20523;-41
2023/03/30 05:00:33;;;;;;;5.07;2.90;;;;;;;6.49;85.42;98794.22;5070644;28;20076;-40
2023/03/30 05:03:19;;;;;;;3.88;2.85;;;;;;;6.58;84.86;98799.09;5050411;28;20151;-39
2023/03/30 05:06:02;;;;;;;5.65;3.25;;;;;;;6.70;83.85;98800.41;5061508;28;20048;-40
2023/03/30 05:08:40;;;;;;;6.07;3.45;;;;;;;6.81;83.55;98793.16;5082970;28;20036;-48
2023/03/30 05:11:22;;;;;;;7.35;3.22;;;;;;;6.76;82.51;98805.38;5068873;28;20176;-39
2023/03/30 05:13:59;;;;;;;5.53;3.38;;;;;;;6.65;82.80;98790.25;5085821;28;20041;-40
2023/03/30 05:16:51;;;;;;;5.80;2.83;;;;;;;6.39;82.63;98756.69;5079686;28;20113;-38
2023/03/30 05:19:17;;;;;;;5.50;3.35;;;;;;;6.65;82.85;98795.41;5081677;28;20044;-39
2023/03/30 05:22:15;;;;;;;4.90;3.03;;;;;;;6.84;82.37;98795.66;5048240;28;20064;-41
2023/03/30 05:25:06;;;;;;;5.43;3.55;;;;;;;7.06;81.48;98806.97;5043100;28;20048;-42
2023/03/30 05:27:58;;;;;;;4.53;2.92;;;;;;;7.18;81.05;98801.34;5055587;28;20063;-40
2023/03/30 05:30:52;;;;;;;5.88;3.40;;;;;;;7.21;80.38;98803.84;5063397;28;20040;-39
2023/03/30 05:33:54;;;;;;;4.22;2.83;;;;;;;7.22;79.97;98810.69;4959651;28;20193;-40
2023/03/30 05:36:52;;;;;;;5.53;3.10;;;;;;;7.17;79.52;98807.41;4964656;28;20704;-40
2023/03/30 05:39:40;;;;;;;3.60;2.70;;;;;;;7.31;78.74;98809.53;4965188;28;20058;-41
2023/03/30 05:42:20;;;;;;;4.32;2.90;;;;;;;7.36;78.35;98791.28;4966386;28;20065;-42
2023/03/30 05:45:05;;;;;;;5.70;3.15;;;;;;;7.54;77.16;98811.28;4984610;28;20537;-39
2023/03/30 05:47:56;;;;;;;13.07;2.67;;;;;;;7.64;77.20;98813.47;4970836;28;20058;-39
2023/03/30 05:50:41;;;;;;;4.65;2.50;;;;;;;7.57;76.26;98811.19;4971431;28;20054;-40
2023/03/30 05:53:17;;;;;;;5.22;3.00;;;;;;;7.44;75.97;98812.50;4981616;28;20045;-40
2023/03/30 05:55:56;;;;;;;4.63;2.03;;;;;;;7.35;75.46;98787.00;4941922;28;20047;-39
2023/03/30 05:58:48;;;;;;;5.03;2.90;;;;;;;7.45;74.41;98816.78;4982877;28;20050;-41
2023/03/30 06:01:34;;;;;;;4.88;2.42;;;;;;;7.51;74.56;98816.56;5003885;28;20053;-41
2023/03/30 06:04:02;;;;;;;4.15;2.60;;;;;;;7.69;73.80;98818.50;4984479;28;20045;-39
2023/03/30 06:06:29;;;;;;;3.05;2.22;;;;;;;7.79;73.37;98824.19;4967519;28;20053;-39
2023/03/30 06:08:55;;;;;;;8.38;2.70;;;;;;;7.76;72.90;98821.69;5053097;28;20048;-39
2023/03/30 06:11:23;;;;;;;5.75;2.40;;;;;;;7.69;72.51;98808.16;5080319;28;20037;-41
2023/03/30 06:14:02;;;;;;;9.43;3.20;;;;;;;7.77;72.78;98826.81;5068258;28;20040;-40
2023/03/30 06:16:28;;;;;;;5.13;3.20;;;;;;;7.74;72.57;98831.28;5047598;28;20071;-40
2023/03/30 06:18:55;;;;;;;9.10;2.97;;;;;;;7.56;72.27;98812.94;5085617;28;20788;-40
2023/03/30 06:21:21;;;;;;;6.00;2.78;;;;;;;7.79;72.66;98834.53;5084727;28;20069;-40
2023/03/30 06:24:00;;;;;;;6.15;3.00;;;;;;;7.74;71.86;98836.44;5080268;28;20040;-39
2023/03/30 06:26:29;;;;;;;6.05;2.55;;;;;;;7.61;72.03;98849.81;5065615;28;20044;-41
2023/03/30 06:28:56;;;;;;;3.35;2.38;;;;;;;7.46;71.64;98847.78;5060794;28;20045;-41
2023/03/30 06:31:21;;;;;;;6.80;2.75;;;;;;;7.39;72.19;98841.13;5085120;28;20054;-39
2023/03/30 06:33:54;;;;;;;8.70;3.10;;;;;;;7.31;71.91;98809.53;5078600;28;20131;-40
2023/03/30 06:36:21;;;;;;;5.05;2.95;;;;;;;7.68;71.61;98841.84;5074276;28;20488;-40
2023/03/30 06:38:48;;;;;;;5.70;2.60;;;;;;;7.98;70.82;98848.47;5052879;28;20048;-39
2023/03/30 06:41:16;;;;;;;6.35;3.15;;;;;;;8.20;70.19;98854.53;5084708;28;20048;-39
2023/03/30 06:43:46;;;;;;;3.58;2.60;;;;;;;8.36;69.41;98847.91;5067001;28;20054;-40
2023/03/30 06:46:18;;;;;;;4.45;2.50;;;;;;;8.88;68.00;98845.84;5084301;28;20082;-39
2023/03/30 06:48:47;;;;;;;5.72;2.50;;;;;;;8.68;66.52;98814.69;5076459;28;20098;-40
2023/03/30 06:51:34;;;;;;;5.05;2.55;;;;;;;8.67;65.79;98846.69;5081483;28;20036;-40
2023/03/30 06:54:01;;;;;;;4.18;2.25;;;;;;;8.88;65.75;98844.09;5068590;28;20042;-40
2023/03/30 06:56:27;;;;;;;4.97;2.80;;;;;;;9.16;64.73;98848.94;5070038;28;20055;-40
2023/03/30 06:59:14;;;;;;;5.35;3.38;;;;;;;9.20;64.31;98847.94;5079246;28;20532;-42
2023/03/30 07:02:00;;;;;;;4.50;2.90;;;;;;;9.49;65.08;98833.72;5073454;28;20052;-41
2023/03/30 07:04:54;;;;;;;5.85;2.42;;;;;;;9.65;63.50;98841.66;5086853;28;20080;-41
2023/03/30 07:07:56;;;;;;;4.28;2.47;;;;;;;9.46;62.84;98840.78;5064798;28;20116;-40
2023/03/30 07:10:23;;;;;;;5.13;2.45;;;;;;;9.68;62.44;98834.56;5079442;28;20106;-41
2023/03/30 07:12:50;;;;;;;3.78;2.70;;;;;;;9.70;62.58;98839.72;5099997;28;20041;-41
2023/03/30 07:15:16;;;;;;;5.70;2.40;;;;;;;9.74;62.16;98836.06;5085023;28;20478;-39
2023/03/30 07:17:43;;;;;;;4.25;2.30;;;;;;;9.62;61.48;98816.72;5079846;28;20047;-40
2023/03/30 07:20:10;;;;;;;6.35;2.58;;;;;;;9.57;61.20;98813.47;5055258;28;20060;-39
2023/03/30 07:22:51;;;;;;;3.28;2.08;;;;;;;9.56;60.61;98801.41;5080830;28;20040;-40
2023/03/30 07:25:18;;;;;;;5.18;2.13;;;;;;;10.01;59.92;98831.38;5050554;28;20044;-44
2023/03/30 07:27:44;;;;;;;3.95;2.10;;;;;;;9.92;59.55;98839.59;5061111;28;20040;-40
2023/03/30 07:30:11;;;;;;;4.93;2.55;;;;;;;10.03;59.61;98832.16;5061456;28;20085;-39
2023/03/30 07:32:37;;;;;;;4.57;2.45;;;;;;;10.38;58.81;98830.56;5081904;28;20032;-42
2023/03/30 07:35:07;;;;;;;6.37;2.07;;;;;;;10.22;58.17;98826.97;5069860;28;20139;-41
2023/03/30 07:37:36;;;;;;;4.93;2.55;;;;;;;10.00;58.33;98838.31;5085691;28;20040;-40
2023/03/30 07:40:06;;;;;;;3.40;2.63;;;;;;;9.58;58.56;98830.69;5052756;28;20043;-41
2023/03/30 07:42:32;;;;;;;2.70;1.80;;;;;;;9.39;58.95;98814.25;5062761;28;20048;-41
2023/03/30 07:45:00;;;;;;;4.10;2.83;;;;;;;9.33;58.75;98832.69;5081778;28;20437;-41
2023/03/30 07:47:27;;;;;;;4.35;2.20;;;;;;;9.08;59.12;98842.41;5086998;28;20044;-41
2023/03/30 07:49:53;;;;;;;9.02;2.50;;;;;;;8.71;59.89;98848.25;5065538;28;20040;-40
2023/03/30 07:52:19;;;;;;;3.13;2.50;;;;;;;8.61;60.29;98847.78;5097831;28;20397;-41
2023/03/30 07:54:53;;;;;;;5.22;2.53;;;;;;;8.35;60.95;98822.91;5084446;28;20131;-43
2023/03/30 07:57:25;;;;;;;7.15;3.33;;;;;;;8.62;61.17;98836.53;5089039;27;20051;-41
2023/03/30 07:59:51;;;;;;;3.53;2.80;;;;;;;8.79;61.23;98854.81;5068918;28;20428;-41
2023/03/30 08:02:38;;;;;;;9.48;2.40;;;;;;;8.76;61.19;98847.16;5079671;28;20031;-41
2023/03/30 08:05:07;;;;;;;10.83;2.77;;;;;;;8.40;61.34;98827.91;5068613;28;20090;-41
2023/03/30 08:07:44;;;;;;;6.85;3.20;;;;;;;8.44;61.93;98852.78;5065031;28;20467;-38
2023/03/30 08:10:16;;;;;;;6.97;2.83;;;;;;;8.38;62.28;98832.28;5067510;28;20082;-37
2023/03/30 08:12:41;;;;;;;4.10;2.40;;;;;;;8.48;62.06;98849.16;5071764;28;20056;-38
2023/03/30 08:15:08;;;;;;;7.80;3.17;;;;;;;8.57;62.90;98864.34;5050654;28;20136;-38
2023/03/30 08:17:34;;;;;;;8.52;3.00;;;;;;;8.60;62.49;98853.00;5074986;28;20047;-38
2023/03/30 08:20:00;;;;;;;3.30;1.85;;;;;;;8.42;62.54;98854.59;5083786;28;20043;-37
2023/03/30 08:22:26;;;;;;;4.50;1.85;;;;;;;8.26;62.79;98858.66;5059365;28;20154;-36
2023/03/30 08:24:52;;;;;;;2.65;1.70;;;;;;;8.08;63.04;98858.44;5085933;28;20111;-39
2023/03/30 08:27:18;;;;;;;2.75;1.63;;;;;;;7.93;63.15;98856.41;5082592;28;20035;-40
2023/03/30 08:29:44;;;;;;;1.60;1.33;;;;;;;7.89;62.85;98870.38;5075683;28;20036;-40
2023/03/30 08:32:09;;;;;;;1.77;1.20;;;;;;;7.80;62.49;98864.69;5085566;28;20114;-39
2023/03/30 08:34:36;;;;;;;3.95;1.60;;;;;;;7.81;62.06;98868.94;5077302;28;20048;-39
2023/03/30 08:37:01;;;;;;;2.40;1.40;;;;;;;7.93;61.76;98865.91;5051614;28;20496;-40
2023/03/30 08:39:30;;;;;;;4.20;1.80;;;;;;;7.96;62.15;98871.81;5079263;28;20093;-38
2023/03/30 08:41:56;;;;;;;4.32;1.38;;;;;;;8.09;62.06;98875.66;5071634;28;20048;-38
2023/03/30 08:44:43;;;;;;;3.10;1.55;;;;;;;8.16;62.09;98863.34;5068796;28;20051;-38
2023/03/30 08:47:12;;;;;;;3.40;1.70;;;;;;;8.47;61.60;98869.06;5061865;28;20066;-39
2023/03/30 08:49:42;;;;;;;5.10;1.80;;;;;;;8.57;61.45;98871.28;5087575;28;20035;-37
2023/03/30 08:52:14;;;;;;;2.92;1.02;;;;;;;8.69;61.37;98878.59;5083204;28;20125;-37
2023/03/30 08:54:40;;;;;;;0.90;0.65;;;;;;;8.48;62.45;98875.06;5082703;28;20507;-38
2023/03/30 08:57:31;;;;;;;1.60;0.90;;;;;;;8.47;63.39;98886.34;5084131;28;20051;-41
2023/03/30 09:00:28;;;;;;;2.33;0.90;;;;;;;8.33;63.89;98884.25;5080336;28;20040;-40
2023/03/30 09:03:03;;;;;;;2.95;1.02;;;;;;;7.91;64.86;98891.84;5091921;28;20036;-40
2023/03/30 09:05:31;;;;;;;5.25;0.85;;;;;;;7.73;65.38;98887.34;5083040;28;20459;-40
2023/03/30 09:08:21;;;;;;;2.13;1.20;;;;;;;7.87;66.10;98892.00;5076842;28;20531;-43
2023/03/30 09:10:52;;;;;;;1.77;1.10;;;;;;;7.84;65.50;98861.09;5069156;28;20051;-41
2023/03/30 09:13:19;;;;;;;4.25;1.15;;;;;;;8.09;65.39;98887.75;5060265;28;20032;-40
2023/03/30 09:15:53;;;;;;;3.53;1.25;;;;;;;7.87;65.73;98854.03;5080510;28;20624;-41
2023/03/30 09:18:21;;;;;;;6.88;1.40;;;;;;;7.82;65.70;98862.88;5043642;28;20135;-41
2023/03/30 09:20:50;;;;;;;4.13;1.40;;;;;;;8.10;66.03;98889.44;5095158;28;20087;-39
2023/03/30 09:23:17;;;;;;;3.25;1.15;;;;;;;8.17;66.11;98890.03;5076561;28;20591;-40
2023/03/30 09:26:05;;;;;;;1.42;1.00;;;;;;;8.02;66.60;98899.22;5078725;28;20226;-39
2023/03/30 09:28:54;;;;;;;2.03;1.40;;;;;;;7.88;67.07;98885.94;5083194;28;20076;-41
2023/03/30 09:31:31;;;;;;;3.88;1.27;;;;;;;7.82;67.04;98897.34;5082138;28;20047;-39
2023/03/30 09:34:16;;;;;;;13.05;2.03;;;;;;;7.78;67.04;98890.63;5074180;28;20039;-41
2023/03/30 09:36:50;;;;;;;2.10;1.45;;;;;;;7.66;67.26;98898.78;5084800;28;20051;-40
2023/03/30 09:39:21;;;;;;;5.63;1.30;;;;;;;7.52;67.47;98906.19;5081106;28;20538;-40
2023/03/30 09:42:11;;;;;;;1.55;1.25;;;;;;;7.49;67.94;98909.72;5072624;28;20538;-43
2023/03/30 09:44:55;;;;;;;4.22;1.40;;;;;;;7.44;67.58;98914.22;5069173;28;20064;-42
2023/03/30 09:47:23;;;;;;;1.27;1.17;;;;;;;7.35;67.96;98917.13;5075581;28;20058;-41
2023/03/30 09:50:01;;;;;;;1.55;1.00;;;;;;;7.29;67.52;98916.47;5073370;28;20044;-40
2023/03/30 09:52:28;;;;;;;7.43;1.60;;;;;;;7.17;67.65;98892.72;5068599;28;20127;-41
2023/03/30 09:54:56;;;;;;;1.40;1.10;;;;;;;7.39;67.24;98921.28;5058605;28;21029;-40
2023/03/30 09:57:30;;;;;;;2.03;1.33;;;;;;;7.40;67.21;98930.72;5071039;28;20048;-42
2023/03/30 09:59:58;;;;;;;6.40;1.33;;;;;;;7.06;67.49;98905.16;5057189;28;20064;-40
2023/03/30 10:02:27;;;;;;;2.45;1.23;;;;;;;7.02;67.39;98884.63;5070440;28;20040;-41
2023/03/30 10:04:58;;;;;;;2.15;1.40;;;;;;;7.39;67.45;98928.19;5064350;28;20147;-40
2023/03/30 10:07:36;;;;;;;3.28;1.90;;;;;;;7.42;67.13;98939.28;5106815;27;20047;-40
2023/03/30 10:10:24;;;;;;;3.15;1.30;;;;;;;7.37;67.41;98930.00;5063581;28;20390;-42
2023/03/30 10:12:54;;;;;;;8.10;2.22;;;;;;;7.55;67.09;98931.94;5078459;28;20432;-42
2023/03/30 10:15:20;;;;;;;;;;;;;;;7.63;66.84;98927.38;5067563;28;20071;-40
2023/03/30 10:17:47;;;;;;;1.70;1.20;;;;;;;7.66;66.66;98933.28;5081296;28;19920;-40
2023/03/30 10:20:23;;;;;;;1.42;1.30;;;;;;;7.53;66.68;98937.19;5079424;28;20583;-42
2023/03/30 10:23:01;;;;;;;6.43;1.30;;;;;;;7.51;66.79;98936.38;5080753;28;20020;-42
2023/03/30 10:25:30;;;;;;;2.05;1.20;;;;;;;7.44;66.53;98913.34;5080400;28;20041;-40
2023/03/30 10:28:01;;;;;;;3.63;1.33;;;;;;;7.65;66.58;98944.50;5074451;28;20047;-41
2023/03/30 10:30:28;;;;;;;2.85;1.30;;;;;;;7.37;66.54;98894.66;5052548;28;20040;-41
2023/03/30 10:33:00;;;;;;;5.05;1.60;;;;;;;7.73;66.61;98946.00;5055823;28;20094;-42
2023/03/30 10:35:32;;;;;;;4.45;1.60;;;;;;;7.82;66.25;98936.16;5085276;28;20417;-42
2023/03/30 10:38:00;;;;;;;1.60;1.48;;;;;;;7.87;66.05;98933.41;5091196;28;20040;-41
2023/03/30 10:40:31;;;;;;;7.97;1.52;;;;;;;7.86;66.22;98916.19;5069427;28;20048;-42
2023/03/30 10:42:57;;;;;;;2.40;1.52;;;;;;;7.85;66.19;98930.88;5072417;28;20056;-41
2023/03/30 10:45:32;;;;;;;3.97;1.70;;;;;;;7.78;66.15;98951.88;5069450;28;20645;-41
2023/03/30 10:48:15;;;;;;;4.80;1.60;;;;;;;7.74;66.31;98945.09;5097888;28;20704;-41
2023/03/30 10:50:58;;;;;;;1.98;1.50;;;;;;;7.69;66.12;98953.03;5083842;28;20514;-41
2023/03/30 10:53:48;;;;;;;3.95;1.83;;;;;;;7.64;66.28;98947.19;5087997;28;20097;-41
2023/03/30 10:56:31;;;;;;;4.07;1.40;;;;;;;7.46;66.40;98953.81;5075335;28;20055;-42
2023/03/30 10:59:22;;;;;;;4.22;1.83;;;;;;;7.09;66.77;98961.91;5083328;28;20117;-42
2023/03/30 11:02:13;;;;;;;2.50;1.58;;;;;;;7.18;66.86;98965.94;5086917;28;20048;-41
2023/03/30 11:04:58;;;;;;;4.30;2.00;;;;;;;7.07;67.16;98947.34;5085426;28;20077;-40
2023/03/30 11:07:39;;;;;;;2.20;1.55;;;;;;;7.06;66.86;98969.78;5085062;28;20046;-40
2023/03/30 11:10:19;;;;;;;2.53;1.77;;;;;;;6.73;67.24;98969.06;5071436;28;20044;-42
2023/03/30 11:12:59;;;;;;;2.70;1.83;;;;;;;6.71;67.87;98970.84;5071218;28;20044;-40
2023/03/30 11:15:32;;;;;;;2.70;1.70;;;;;;;6.45;67.60;98921.72;5086674;28;20054;-40
2023/03/30 11:18:06;;;;;;;2.38;1.92;;;;;;;6.78;68.00;98974.09;5088265;28;20051;-39
2023/03/30 11:20:37;;;;;;;4.10;2.00;;;;;;;6.77;67.91;98975.81;5061633;28;20044;-41
2023/03/30 11:23:31;;;;;;;1.90;1.70;;;;;;;6.84;67.62;98971.31;5051431;28;20038;-43
2023/03/30 11:26:11;;;;;;;3.25;1.73;;;;;;;6.85;67.26;98964.44;5094861;28;20481;-40
2023/03/30 11:28:43;;;;;;;5.50;2.05;;;;;;;7.02;66.53;98954.38;5088042;28;20040;-40
2023/03/30 11:31:28;;;;;;;4.50;1.80;;;;;;;7.11;66.69;98946.38;5085916;28;20052;-41
2023/03/30 11:34:01;;;;;;;2.15;1.60;;;;;;;6.99;66.20;98944.16;5088789;28;20572;-42
2023/03/30 11:36:31;;;;;;;4.00;1.58;;;;;;;7.07;66.17;98948.19;5083754;28;20057;-42
2023/03/30 11:39:06;;;;;;;4.78;1.90;;;;;;;6.88;66.14;98900.56;5087501;28;20150;-41
2023/03/30 11:41:37;;;;;;;5.03;1.70;;;;;;;7.23;66.00;98949.38;5067932;28;20105;-40
2023/03/30 11:44:04;;;;;;;8.05;2.03;;;;;;;6.94;65.87;98892.63;5085237;28;20040;-42
2023/03/30 11:47:05;;;;;;;3.72;1.90;;;;;;;7.25;65.88;98959.69;5087493;28;20044;-40
2023/03/30 11:49:59;;;;;;;2.22;1.92;;;;;;;7.14;65.97;98954.00;5088924;28;20085;-41
2023/03/30 11:52:45;;;;;;;2.45;1.88;;;;;;;6.99;66.12;98949.31;5087102;28;20079;-40
2023/03/30 11:55:23;;;;;;;2.17;1.90;;;;;;;6.81;66.36;98948.16;5083824;28;20043;-40
2023/03/30 11:58:21;;;;;;;2.60;1.95;;;;;;;6.78;66.61;98958.59;5067537;28;20032;-40
2023/03/30 12:01:02;;;;;;;2.65;2.00;;;;;;;6.65;66.73;98958.09;5069587;28;20059;-40
2023/03/30 12:03:34;;;;;;;4.90;2.25;;;;;;;6.59;67.23;98966.06;5085116;28;20048;-41
2023/03/30 12:06:30;;;;;;;2.60;2.08;;;;;;;6.52;67.04;98969.72;5067710;28;20052;-41
2023/03/30 12:09:22;;;;;;;3.40;2.25;;;;;;;6.31;66.85;98952.25;5068045;28;20567;-43
2023/03/30 12:11:51;;;;;;;4.80;2.25;;;;;;;6.37;67.18;98967.56;5081514;28;20062;-42
2023/03/30 12:14:51;;;;;;;2.63;2.30;;;;;;;6.45;67.35;98963.03;5086698;28;20036;-41
2023/03/30 12:17:17;;;;;;;2.10;1.83;;;;;;;6.47;67.56;98968.16;5063891;28;20131;-40
2023/03/30 12:19:48;;;;;;;2.13;1.90;;;;;;;6.16;67.25;98930.31;5087005;28;20392;-40